»·PEaware :: N12529 KSNA-KAVX

N12529 :: KSNA-KAVX

FLIGHT INFORMATION

Flight Status: Arrived
Operator: Privately registered:
United States
More flights under this callsign
Pilot: Eduardo Elias G. (24838)
Aircraft: CESSNA 182 SKYLANE
(C182)
More flights by this aircraft type
Origin: KSNA John Wayne-Orange Co
United States
Destination: KAVX Catalina
United States
More flights between these airports :: More routes between these airports
Route: SLI V21 SXC
File this flight plan on PilotEdge
Remarks: I-7 Rating
Altitude:
(Current/Filed)
4,000ft
Speed:
(Current/Filed)
135kts
Departed: 22-Jan-20 08:58 PM
Arrived: 22-Jan-20 09:27 PM
Distance/Time
Traveled:
32nm/0:29
Distance/Time
To Go:
Arrived

Flight Plot

Page will automatically refresh every two minutes.


Map Options




Map Legend


Flown Route
Filed Route
Departure Airport
Arrival Airport
Navaid (VOR, NDB)
Fix

Horizontal Profiles

Position Reports

Time Latitude Longitude Heading Altitude Ground
Speed
22-Jan-20 20:27 33.667573 -117.870938 37 59ft 0kts
22-Jan-20 20:28 33.667573 -117.870938 37 59ft 0kts
22-Jan-20 20:29 33.667573 -117.870938 37 59ft 0kts
22-Jan-20 20:30 33.667574 -117.870938 37 59ft 0kts
22-Jan-20 20:31 33.667577 -117.870935 37 59ft 0kts
22-Jan-20 20:32 33.667580 -117.870932 37 59ft 0kts
22-Jan-20 20:33 33.667584 -117.870929 37 59ft 0kts
22-Jan-20 20:34 33.667587 -117.870926 37 59ft 0kts
22-Jan-20 20:35 33.667590 -117.870923 37 59ft 0kts
22-Jan-20 20:36 33.667594 -117.870920 37 59ft 0kts
22-Jan-20 20:37 33.667597 -117.870917 37 59ft 0kts
22-Jan-20 20:38 33.667600 -117.870913 37 59ft 0kts
22-Jan-20 20:39 33.667604 -117.870910 37 59ft 0kts
22-Jan-20 20:40 33.667608 -117.870907 37 59ft 0kts
22-Jan-20 20:41 33.667611 -117.870904 37 59ft 0kts
22-Jan-20 20:42 33.667614 -117.870901 37 59ft 0kts
22-Jan-20 20:43 33.667618 -117.870898 37 59ft 0kts
22-Jan-20 20:44 33.667621 -117.870895 37 59ft 0kts
22-Jan-20 20:45 33.667624 -117.870892 37 59ft 0kts
22-Jan-20 20:46 33.667628 -117.870889 37 59ft 0kts
22-Jan-20 20:47 33.667631 -117.870886 37 59ft 0kts
22-Jan-20 20:48 33.667634 -117.870882 37 59ft 0kts
22-Jan-20 20:49 33.667839 -117.871753 310 59ft 5kts
22-Jan-20 20:50 33.668557 -117.871773 36 59ft 9kts
22-Jan-20 20:51 33.671983 -117.868403 45 59ft 11kts
22-Jan-20 20:52 33.673767 -117.867022 318 59ft 6kts
22-Jan-20 20:53 33.678397 -117.864440 27 59ft 21kts
22-Jan-20 20:54 33.679632 -117.863766 331 59ft 0kts
22-Jan-20 20:55 33.679640 -117.863771 331 59ft 0kts
22-Jan-20 20:56 33.679278 -117.864688 208 59ft 35kts
22-Jan-20 20:57 33.660519 -117.878694 229 1194ft 80kts
22-Jan-20 20:58 33.644691 -117.900893 231 2433ft 95kts
22-Jan-20 20:59 33.626822 -117.922965 232 3608ft 89kts
22-Jan-20 21:00 33.605494 -117.948809 233 4019ft 139kts
22-Jan-20 21:01 33.577994 -117.983864 232 4010ft 144kts
22-Jan-20 21:02 33.551428 -118.018248 232 4007ft 137kts
22-Jan-20 21:03 33.525493 -118.051960 232 4010ft 136kts
22-Jan-20 21:04 33.499733 -118.085373 232 4013ft 136kts
22-Jan-20 21:05 33.473903 -118.118619 232 4012ft 137kts
22-Jan-20 21:06 33.447237 -118.152060 232 4014ft 139kts
22-Jan-20 21:07 33.420249 -118.185748 232 3995ft 140kts
22-Jan-20 21:08 33.393370 -118.219377 235 3993ft 139kts
22-Jan-20 21:09 33.382923 -118.261209 262 3998ft 131kts
22-Jan-20 21:10 33.374446 -118.303852 266 3995ft 130kts
22-Jan-20 21:11 33.368481 -118.346533 266 3995ft 130kts
22-Jan-20 21:12 33.365273 -118.389389 278 3994ft 127kts
22-Jan-20 21:13 33.367479 -118.431609 299 3982ft 123kts
22-Jan-20 21:14 33.396262 -118.423580 31 4002ft 128kts
22-Jan-20 21:15 33.428562 -118.411251 4 3998ft 123kts
22-Jan-20 21:16 33.462623 -118.406588 2 3994ft 122kts
22-Jan-20 21:17 33.493442 -118.412207 319 3474ft 110kts
22-Jan-20 21:18 33.514667 -118.433162 346 3390ft 90kts
22-Jan-20 21:19 33.518505 -118.408787 137 3409ft 115kts
22-Jan-20 21:20 33.488735 -118.400174 190 3397ft 116kts
22-Jan-20 21:21 33.456866 -118.406074 193 3395ft 116kts
22-Jan-20 21:22 33.426165 -118.418708 224 3146ft 110kts
22-Jan-20 21:23 33.404634 -118.443270 247 3189ft 101kts
22-Jan-20 21:24 33.382014 -118.446560 114 3217ft 91kts
22-Jan-20 21:25 33.395434 -118.430980 39 2361ft 69kts
22-Jan-20 21:26 33.405740 -118.414569 55 1605ft 9kts
22-Jan-20 21:27 33.407402 -118.411439 80 1605ft 9kts
22-Jan-20 21:28 33.405817 -118.413689 234 1605ft 14kts
22-Jan-20 21:29 33.404525 -118.415909 234 1605ft 15kts
22-Jan-20 21:30 33.403599 -118.417218 85 1605ft 2kts
22-Jan-20 21:31 33.403444 -118.416090 111 1605ft 0kts
22-Jan-20 21:33 33.403444 -118.416088 111 1605ft 0kts

Navigation Log

Ident Type
Flight plan parsing failed, navigation log unavailable